Time;durP1;ratioP1;P1;durP2;ratioP2;P2;SDS_P1;SDS_P2;PMS_P1;PMS_P2;Temp;Humidity;BMP_temperature;BMP_pressure;BME280_temperature;BME280_humidity;BME280_pressure;Samples;Min_cycle;Max_cycle;Signal;HPM_P1;HPM_P2
2021/10/26 00:00:55;;;;;;;;;;;19.80;57.40;;;;;;4997963;28;19988;-52
2021/10/26 00:03:22;;;;;;;;;;;19.80;57.40;;;;;;5012177;28;20293;-49
2021/10/26 00:05:49;;;;;;;;;;;19.80;57.40;;;;;;4999926;28;19929;-53
2021/10/26 00:08:16;;;;;;;;;;;19.80;57.40;;;;;;4999225;28;19926;-49
2021/10/26 00:10:44;;;;;;;;;;;19.80;57.40;;;;;;4998654;28;20287;-54
2021/10/26 00:13:11;;;;;;;;;;;19.80;57.40;;;;;;5016141;28;19926;-52
2021/10/26 00:15:38;;;;;;;;;;;19.80;57.40;;;;;;5016249;28;19975;-54
2021/10/26 00:18:05;;;;;;;;;;;19.80;57.40;;;;;;4999706;28;19926;-54
2021/10/26 00:20:32;;;;;;;;;;;19.80;57.40;;;;;;4999929;28;19996;-53
2021/10/26 00:22:59;;;;;;;;;;;19.80;57.40;;;;;;5013679;28;19933;-54
2021/10/26 00:25:27;;;;;;;;;;;19.80;57.40;;;;;;5015682;28;20341;-54
2021/10/26 00:27:54;;;;;;;;;;;19.80;57.40;;;;;;5003191;28;19926;-53
2021/10/26 00:30:21;;;;;;;;;;;19.80;57.40;;;;;;4999612;28;19925;-54
2021/10/26 00:32:48;;;;;;;;;;;19.80;57.40;;;;;;5010030;28;20340;-54
2021/10/26 00:35:16;;;;;;;;;;;19.80;57.40;;;;;;5013908;28;19926;-53
2021/10/26 00:37:45;;;;;;;;;;;19.80;57.40;;;;;;5015340;28;19933;-52
2021/10/26 00:40:13;;;;;;;;;;;19.80;57.40;;;;;;5015432;28;19975;-51
2021/10/26 00:42:40;;;;;;;;;;;19.80;57.40;;;;;;5014257;28;20369;-50
2021/10/26 00:45:07;;;;;;;;;;;19.80;57.90;;;;;;5015307;28;19929;-51
2021/10/26 00:47:34;;;;;;;;;;;19.80;57.40;;;;;;5015570;28;19929;-53
2021/10/26 00:50:02;;;;;;;;;;;19.80;57.40;;;;;;5015478;28;19948;-53
2021/10/26 00:52:29;;;;;;;;;;;19.80;57.40;;;;;;5011648;28;19925;-53
2021/10/26 00:54:58;;;;;;;;;;;19.80;57.40;;;;;;5001686;28;19937;-51
2021/10/26 00:57:28;;;;;;;;;;;19.80;57.40;;;;;;5012844;28;20333;-52
2021/10/26 00:59:55;;;;;;;;;;;19.80;57.30;;;;;;4998889;28;19980;-48
2021/10/26 01:02:23;;;;;;;;;;;19.80;57.40;;;;;;4999134;28;19934;-53
2021/10/26 01:04:52;;;;;;;;;;;19.80;57.40;;;;;;4998503;28;19926;-51
2021/10/26 01:07:20;;;;;;;;;;;19.80;57.40;;;;;;4998385;28;20313;-52
2021/10/26 01:09:47;;;;;;;;;;;19.80;57.40;;;;;;5014835;28;19979;-53
2021/10/26 01:12:14;;;;;;;;;;;19.80;57.40;;;;;;4997863;28;19930;-53
2021/10/26 01:14:41;;;;;;;;;;;19.80;57.40;;;;;;4996096;28;20441;-50
2021/10/26 01:17:10;;;;;;;;;;;19.80;57.40;;;;;;5010081;28;19971;-52
2021/10/26 01:19:44;;;;;;;;;;;19.80;57.40;;;;;;4999577;28;20267;-47
2021/10/26 01:22:12;;;;;;;;;;;19.80;57.40;;;;;;4999396;28;19926;-48
2021/10/26 01:24:39;;;;;;;;;;;19.80;57.40;;;;;;5012748;28;19929;-51
2021/10/26 01:27:06;;;;;;;;;;;19.80;57.40;;;;;;5000581;28;19926;-51
2021/10/26 01:29:34;;;;;;;;;;;19.80;57.40;;;;;;5010164;28;19975;-50
2021/10/26 01:32:03;;;;;;;;;;;19.80;57.40;;;;;;5015143;28;19957;-48
2021/10/26 01:34:30;;;;;;;;;;;19.80;57.40;;;;;;5014286;28;20425;-47
2021/10/26 01:36:58;;;;;;;;;;;19.80;57.40;;;;;;5013230;28;20012;-47
2021/10/26 01:39:26;;;;;;;;;;;19.80;57.40;;;;;;5014574;28;19925;-49
2021/10/26 01:41:53;;;;;;;;;;;19.80;57.40;;;;;;5014548;28;19929;-51
2021/10/26 01:44:20;;;;;;;;;;;19.80;57.40;;;;;;5014436;28;19930;-50
2021/10/26 01:46:47;;;;;;;;;;;19.80;57.40;;;;;;5007203;28;20017;-50
2021/10/26 01:49:14;;;;;;;;;;;19.80;57.40;;;;;;4997109;28;19926;-49
2021/10/26 01:51:41;;;;;;;;;;;19.80;57.40;;;;;;4998199;28;19972;-49
2021/10/26 01:54:09;;;;;;;;;;;19.80;57.40;;;;;;5001657;28;19983;-49
2021/10/26 01:56:36;;;;;;;;;;;19.80;57.40;;;;;;5013679;28;19969;-55
2021/10/26 01:59:03;;;;;;;;;;;19.80;57.40;;;;;;5011640;28;19979;-54
2021/10/26 02:01:30;;;;;;;;;;;19.80;57.40;;;;;;4997704;28;19926;-51
2021/10/26 02:03:57;;;;;;;;;;;19.80;57.40;;;;;;4998410;28;19975;-51
2021/10/26 02:06:24;;;;;;;;;;;19.80;58.00;;;;;;5013786;28;20366;-54
2021/10/26 02:08:51;;;;;;;;;;;19.80;57.40;;;;;;4996440;28;20008;-50
2021/10/26 02:11:18;;;;;;;;;;;19.80;57.40;;;;;;5012692;28;19933;-49
2021/10/26 02:13:45;;;;;;;;;;;19.70;57.30;;;;;;4996332;28;20382;-53
2021/10/26 02:16:12;;;;;;;;;;;19.80;57.40;;;;;;5014051;28;19929;-48
2021/10/26 02:18:40;;;;;;;;;;;19.80;57.40;;;;;;5013194;28;19936;-48
2021/10/26 02:21:07;;;;;;;;;;;19.80;57.40;;;;;;4998768;28;19926;-51
2021/10/26 02:23:34;;;;;;;;;;;19.80;57.40;;;;;;5011239;28;19993;-51
2021/10/26 02:26:01;;;;;;;;;;;19.80;57.40;;;;;;5012884;28;19929;-49
2021/10/26 02:28:29;;;;;;;;;;;19.80;57.40;;;;;;5012116;28;19926;-49
2021/10/26 02:30:56;;;;;;;;;;;19.70;57.30;;;;;;5012547;28;19929;-51
2021/10/26 02:33:23;;;;;;;;;;;19.70;57.30;;;;;;5013318;28;20445;-48
2021/10/26 02:35:50;;;;;;;;;;;19.70;57.30;;;;;;5013290;28;20373;-48
2021/10/26 02:38:17;;;;;;;;;;;19.80;57.40;;;;;;5004850;28;20012;-50
2021/10/26 02:40:44;;;;;;;;;;;19.70;57.30;;;;;;5004319;28;20300;-50
2021/10/26 02:43:11;;;;;;;;;;;19.80;57.40;;;;;;5005899;28;19997;-50
2021/10/26 02:45:39;;;;;;;;;;;19.70;57.30;;;;;;5002671;28;20334;-52
2021/10/26 02:48:06;;;;;;;;;;;19.70;57.30;;;;;;5008662;28;20056;-50
2021/10/26 02:50:33;;;;;;;;;;;19.70;57.30;;;;;;5000566;28;19925;-49
2021/10/26 02:53:00;;;;;;;;;;;19.70;57.30;;;;;;5010326;28;19926;-51
2021/10/26 02:55:27;;;;;;;;;;;19.80;57.40;;;;;;4996708;28;19945;-50
2021/10/26 02:57:54;;;;;;;;;;;19.70;57.30;;;;;;4997661;28;20016;-51
2021/10/26 03:00:21;;;;;;;;;;;19.70;57.30;;;;;;5012856;28;19980;-52
2021/10/26 03:02:48;;;;;;;;;;;19.70;57.30;;;;;;5013112;28;20374;-48
2021/10/26 03:05:15;;;;;;;;;;;19.70;57.30;;;;;;4995788;28;19929;-51
2021/10/26 03:07:45;;;;;;;;;;;19.70;57.30;;;;;;5012936;28;19935;-49
2021/10/26 03:10:13;;;;;;;;;;;19.70;57.30;;;;;;5012935;28;19925;-52
2021/10/26 03:12:41;;;;;;;;;;;19.70;57.30;;;;;;5013095;28;19979;-51
2021/10/26 03:15:09;;;;;;;;;;;19.80;57.40;;;;;;5012383;28;19980;-51
2021/10/26 03:17:36;;;;;;;;;;;19.70;57.30;;;;;;4997939;28;19977;-48
2021/10/26 03:20:04;;;;;;;;;;;19.70;57.30;;;;;;5009318;28;19952;-51
2021/10/26 03:22:32;;;;;;;;;;;19.70;57.30;;;;;;5011680;28;19929;-52
2021/10/26 03:24:59;;;;;;;;;;;19.80;57.40;;;;;;5013076;28;19925;-51
2021/10/26 03:27:26;;;;;;;;;;;19.70;57.30;;;;;;5000975;28;20370;-49
2021/10/26 03:29:59;;;;;;;;;;;19.70;57.30;;;;;;5007507;28;19932;-50
2021/10/26 03:32:27;;;;;;;;;;;19.70;57.30;;;;;;5002563;28;19926;-50
2021/10/26 03:34:53;;;;;;;;;;;19.70;57.30;;;;;;5008982;28;19987;-49
2021/10/26 03:37:20;;;;;;;;;;;19.70;57.30;;;;;;5011295;28;20377;-54
2021/10/26 03:39:54;;;;;;;;;;;19.70;57.30;;;;;;5007946;28;20016;-51
2021/10/26 03:42:24;;;;;;;;;;;19.70;57.30;;;;;;5000343;28;19925;-51
2021/10/26 03:44:52;;;;;;;;;;;19.70;57.30;;;;;;5007464;28;19926;-54
2021/10/26 03:47:19;;;;;;;;;;;19.70;57.30;;;;;;5015328;28;20008;-53
2021/10/26 03:49:50;;;;;;;;;;;19.70;57.30;;;;;;5016330;28;19925;-52
2021/10/26 03:52:17;;;;;;;;;;;19.70;57.30;;;;;;5011915;28;19969;-51
2021/10/26 03:54:44;;;;;;;;;;;19.70;57.60;;;;;;5003655;28;19974;-51
2021/10/26 03:57:12;;;;;;;;;;;19.70;57.30;;;;;;5013162;28;20378;-52
2021/10/26 03:59:40;;;;;;;;;;;19.70;57.30;;;;;;5000289;28;19929;-52
2021/10/26 04:02:09;;;;;;;;;;;19.70;57.30;;;;;;5000980;28;20401;-52
2021/10/26 04:04:37;;;;;;;;;;;19.70;57.30;;;;;;5015782;28;19933;-54
2021/10/26 04:07:07;;;;;;;;;;;19.70;57.30;;;;;;4999942;28;19992;-54
2021/10/26 04:09:49;;;;;;;;;;;19.70;57.50;;;;;;4999603;28;19925;-53
2021/10/26 04:12:25;;;;;;;;;;;19.70;57.30;;;;;;4999357;28;20342;-53
2021/10/26 04:14:54;;;;;;;;;;;19.70;57.30;;;;;;5016265;28;19933;-53
2021/10/26 04:17:22;;;;;;;;;;;19.70;57.40;;;;;;5015653;28;20337;-53
2021/10/26 04:19:50;;;;;;;;;;;19.70;57.30;;;;;;4999579;28;19973;-51
2021/10/26 04:22:17;;;;;;;;;;;19.70;57.30;;;;;;5015694;28;20052;-52
2021/10/26 04:24:44;;;;;;;;;;;19.70;57.30;;;;;;5015224;28;19926;-49
2021/10/26 04:27:12;;;;;;;;;;;19.70;57.30;;;;;;5015475;28;20004;-50
2021/10/26 04:29:39;;;;;;;;;;;19.70;57.30;;;;;;5014586;28;19968;-49
2021/10/26 04:32:09;;;;;;;;;;;19.70;57.30;;;;;;5000159;28;19972;-49
2021/10/26 04:34:37;;;;;;;;;;;19.70;57.30;;;;;;5014142;28;20290;-47
2021/10/26 04:37:08;;;;;;;;;;;19.70;57.30;;;;;;5014713;28;19965;-52
2021/10/26 04:39:41;;;;;;;;;;;19.70;57.30;;;;;;5015564;28;20401;-48
2021/10/26 04:42:09;;;;;;;;;;;19.70;57.30;;;;;;5002166;28;20013;-50
2021/10/26 04:44:37;;;;;;;;;;;19.70;57.30;;;;;;5011766;28;20377;-47
2021/10/26 04:47:04;;;;;;;;;;;19.70;57.30;;;;;;5015084;28;19971;-48
2021/10/26 04:49:31;;;;;;;;;;;19.70;57.90;;;;;;5029593;28;19925;-49
2021/10/26 04:51:58;;;;;;;;;;;19.70;57.30;;;;;;5005198;28;20449;-51
2021/10/26 04:54:25;;;;;;;;;;;19.70;57.30;;;;;;4999030;28;19965;-52
2021/10/26 04:56:52;;;;;;;;;;;19.70;57.30;;;;;;5006885;28;19925;-53
2021/10/26 04:59:22;;;;;;;;;;;19.70;57.30;;;;;;5014179;28;20356;-51
2021/10/26 05:01:49;;;;;;;;;;;19.70;57.30;;;;;;5008340;28;20037;-50
2021/10/26 05:04:16;;;;;;;;;;;19.70;57.30;;;;;;5004435;28;19925;-48
2021/10/26 05:06:43;;;;;;;;;;;19.70;57.30;;;;;;5013608;28;19980;-49
2021/10/26 05:09:10;;;;;;;;;;;19.70;57.30;;;;;;5013651;28;20012;-51
2021/10/26 05:11:37;;;;;;;;;;;19.70;57.30;;;;;;5014824;28;19934;-49
2021/10/26 05:14:04;;;;;;;;;;;19.70;57.30;;;;;;5014653;28;20389;-51
2021/10/26 05:16:32;;;;;;;;;;;19.70;57.30;;;;;;5015514;28;19973;-48
2021/10/26 05:19:02;;;;;;;;;;;19.70;57.30;;;;;;4999675;28;20017;-48
2021/10/26 05:21:29;;;;;;;;;;;19.70;57.30;;;;;;5014278;28;19926;-52
2021/10/26 05:23:56;;;;;;;;;;;19.70;57.30;;;;;;5014469;28;19972;-51
2021/10/26 05:26:24;;;;;;;;;;;19.70;57.30;;;;;;5013297;28;19975;-51
2021/10/26 05:28:51;;;;;;;;;;;19.70;57.30;;;;;;4996768;28;20305;-49
2021/10/26 05:31:18;;;;;;;;;;;19.70;57.30;;;;;;4997922;28;19988;-47
2021/10/26 05:33:47;;;;;;;;;;;19.70;57.30;;;;;;5012936;28;19975;-51
2021/10/26 05:36:14;;;;;;;;;;;19.70;57.30;;;;;;5014601;28;20108;-51
2021/10/26 05:38:41;;;;;;;;;;;19.70;57.30;;;;;;5014463;28;20384;-53
2021/10/26 05:41:09;;;;;;;;;;;19.70;57.30;;;;;;5001153;28;19976;-51
2021/10/26 05:43:37;;;;;;;;;;;19.70;57.30;;;;;;5009752;28;19968;-50
2021/10/26 05:46:05;;;;;;;;;;;19.70;57.30;;;;;;5002441;28;19926;-52
2021/10/26 05:48:34;;;;;;;;;;;19.70;57.30;;;;;;5009211;28;19975;-52
2021/10/26 05:51:02;;;;;;;;;;;19.70;57.30;;;;;;5014399;28;19925;-51
2021/10/26 05:53:29;;;;;;;;;;;19.70;57.30;;;;;;5014044;28;19926;-50
2021/10/26 05:55:56;;;;;;;;;;;19.70;57.30;;;;;;5013790;28;20001;-50
2021/10/26 05:58:23;;;;;;;;;;;19.70;57.30;;;;;;5006918;28;20022;-49
2021/10/26 06:00:50;;;;;;;;;;;19.70;57.30;;;;;;4997724;28;19930;-50
2021/10/26 06:03:17;;;;;;;;;;;19.70;57.20;;;;;;5002444;28;20275;-49
2021/10/26 06:05:44;;;;;;;;;;;19.70;57.20;;;;;;5013810;28;20337;-51
2021/10/26 06:08:11;;;;;;;;;;;19.70;57.20;;;;;;5012667;28;20015;-53
2021/10/26 06:10:43;;;;;;;;;;;19.70;57.20;;;;;;5013580;28;19975;-48
2021/10/26 06:13:12;;;;;;;;;;;19.70;57.20;;;;;;5012162;28;19976;-51
2021/10/26 06:15:40;;;;;;;;;;;19.70;57.20;;;;;;4998654;28;19991;-51
2021/10/26 06:18:12;;;;;;;;;;;19.80;57.30;;;;;;5012164;28;19926;-54
2021/10/26 06:20:39;;;;;;;;;;;19.70;57.20;;;;;;4997985;28;20436;-52
2021/10/26 06:23:06;;;;;;;;;;;19.80;57.20;;;;;;5013846;28;19965;-52
2021/10/26 06:25:33;;;;;;;;;;;19.80;57.20;;;;;;5012370;28;19961;-52
2021/10/26 06:28:00;;;;;;;;;;;19.80;57.20;;;;;;5012442;28;20099;-52
2021/10/26 06:30:27;;;;;;;;;;;19.80;57.10;;;;;;5012863;28;19972;-50
2021/10/26 06:32:54;;;;;;;;;;;19.80;57.10;;;;;;5013779;28;19979;-47
2021/10/26 06:35:21;;;;;;;;;;;19.80;57.10;;;;;;4996526;28;19988;-48
2021/10/26 06:37:48;;;;;;;;;;;19.80;57.10;;;;;;4997412;28;19929;-55
2021/10/26 06:40:17;;;;;;;;;;;19.80;57.10;;;;;;4997253;28;19926;-50
2021/10/26 06:42:44;;;;;;;;;;;19.80;57.10;;;;;;4996915;28;19926;-47
2021/10/26 06:45:12;;;;;;;;;;;19.80;57.00;;;;;;5009379;28;19979;-49
2021/10/26 06:47:40;;;;;;;;;;;19.80;57.00;;;;;;5001721;28;20013;-49
2021/10/26 06:50:07;;;;;;;;;;;19.80;56.90;;;;;;5007402;28;19976;-52
2021/10/26 06:52:35;;;;;;;;;;;19.80;56.90;;;;;;5011924;28;20298;-53
2021/10/26 06:55:03;;;;;;;;;;;19.90;56.90;;;;;;5011506;28;20440;-49
2021/10/26 06:57:30;;;;;;;;;;;19.90;56.90;;;;;;5011932;28;20344;-51
2021/10/26 06:59:57;;;;;;;;;;;19.90;56.90;;;;;;5013116;28;19948;-47
2021/10/26 07:02:24;;;;;;;;;;;19.90;56.90;;;;;;5012997;28;19957;-50
2021/10/26 07:05:00;;;;;;;;;;;19.90;56.90;;;;;;5012028;28;20032;-49
2021/10/26 07:07:28;;;;;;;;;;;19.90;56.80;;;;;;5007437;28;19926;-52
2021/10/26 07:10:03;;;;;;;;;;;19.90;56.70;;;;;;5001932;28;19925;-47
2021/10/26 07:12:30;;;;;;;;;;;19.90;56.70;;;;;;5007691;28;19980;-47
2021/10/26 07:14:58;;;;;;;;;;;19.90;56.70;;;;;;5000236;28;19925;-48
2021/10/26 07:17:25;;;;;;;;;;;19.90;56.70;;;;;;5009294;28;19968;-51
2021/10/26 07:19:53;;;;;;;;;;;20.00;56.70;;;;;;5017005;28;19970;-50
2021/10/26 07:22:20;;;;;;;;;;;19.90;56.60;;;;;;4997927;28;20305;-52
2021/10/26 07:24:55;;;;;;;;;;;19.90;56.60;;;;;;5012693;28;19976;-50
2021/10/26 07:27:24;;;;;;;;;;;20.00;56.70;;;;;;5012047;28;19933;-53
2021/10/26 07:29:51;;;;;;;;;;;19.90;56.50;;;;;;4996177;28;19926;-49
2021/10/26 07:32:20;;;;;;;;;;;20.00;56.60;;;;;;4995792;28;19933;-54
2021/10/26 07:34:47;;;;;;;;;;;20.00;56.60;;;;;;4995523;28;20009;-51
2021/10/26 07:37:17;;;;;;;;;;;20.00;56.60;;;;;;5011270;28;20016;-51
2021/10/26 07:39:46;;;;;;;;;;;20.00;56.50;;;;;;4994555;28;19980;-48
2021/10/26 07:42:14;;;;;;;;;;;20.00;56.50;;;;;;5012896;28;20020;-52
2021/10/26 07:44:45;;;;;;;;;;;20.00;56.50;;;;;;4996387;28;19934;-52
2021/10/26 07:47:15;;;;;;;;;;;20.00;56.40;;;;;;4996614;28;19926;-53
2021/10/26 07:49:43;;;;;;;;;;;20.00;56.40;;;;;;5011816;28;19960;-52
2021/10/26 07:52:10;;;;;;;;;;;20.00;56.40;;;;;;5011596;28;19929;-51
2021/10/26 07:54:55;;;;;;;;;;;20.00;56.40;;;;;;5010824;28;19925;-54
2021/10/26 07:57:22;;;;;;;;;;;20.00;56.40;;;;;;5012263;28;19929;-50
2021/10/26 07:59:50;;;;;;;;;;;20.00;56.40;;;;;;5011217;28;20460;-53
2021/10/26 08:02:17;;;;;;;;;;;20.10;56.40;;;;;;4999044;28;19976;-53
2021/10/26 08:04:44;;;;;;;;;;;20.10;56.40;;;;;;5007458;28;19957;-49
2021/10/26 08:07:13;;;;;;;;;;;20.10;56.40;;;;;;5012384;28;20334;-52
2021/10/26 08:09:47;;;;;;;;;;;20.10;56.40;;;;;;5001212;28;19933;-49
2021/10/26 08:12:15;;;;;;;;;;;20.10;56.90;;;;;;5006889;28;19979;-52
2021/10/26 08:14:42;;;;;;;;;;;20.10;56.30;;;;;;5006661;28;19932;-51
2021/10/26 08:17:09;;;;;;;;;;;20.10;56.90;;;;;;5002648;28;20282;-55
2021/10/26 08:19:40;;;;;;;;;;;20.10;56.20;;;;;;5004538;28;19929;-54
2021/10/26 08:22:13;;;;;;;;;;;20.10;56.20;;;;;;5004598;28;19957;-52
2021/10/26 08:24:40;;;;;;;;;;;20.10;56.20;;;;;;4996277;28;19965;-53
2021/10/26 08:27:09;;;;;;;;;;;20.10;56.20;;;;;;4999072;28;19933;-55
2021/10/26 08:29:43;;;;;;;;;;;20.10;56.20;;;;;;4998826;28;19973;-54
2021/10/26 08:37:11;;;;;;;;;;;20.20;56.20;;;;;;5003692;28;19925;-54
2021/10/26 08:39:40;;;;;;;;;;;20.20;56.20;;;;;;5015455;28;19932;-52
2021/10/26 08:42:09;;;;;;;;;;;20.20;56.20;;;;;;5015669;28;20285;-50
2021/10/26 08:44:36;;;;;;;;;;;20.20;56.20;;;;;;5014527;28;19971;-51
2021/10/26 08:47:04;;;;;;;;;;;20.20;56.20;;;;;;5014247;28;19925;-49
2021/10/26 08:49:33;;;;;;;;;;;20.20;56.10;;;;;;5014777;28;19933;-52
2021/10/26 08:52:01;;;;;;;;;;;20.20;56.10;;;;;;4999877;28;19973;-52
2021/10/26 08:54:28;;;;;;;;;;;20.20;56.00;;;;;;4998365;28;20345;-52
2021/10/26 08:56:55;;;;;;;;;;;20.20;56.00;;;;;;5014867;28;20009;-51
2021/10/26 08:59:22;;;;;;;;;;;20.20;56.00;;;;;;5015537;28;20344;-53
2021/10/26 09:01:52;;;;;;;;;;;20.20;56.00;;;;;;4998165;28;20072;-52
2021/10/26 09:04:19;;;;;;;;;;;20.30;56.10;;;;;;4999116;28;19930;-54
2021/10/26 09:06:51;;;;;;;;;;;20.30;56.00;;;;;;5014920;28;20424;-52
2021/10/26 09:09:24;;;;;;;;;;;20.30;56.00;;;;;;5015363;28;20263;-54
2021/10/26 09:17:49;;;;;;;;;;;20.30;56.00;;;;;;4972161;28;19926;-51
2021/10/26 09:20:24;;;;;;;;;;;20.30;56.00;;;;;;4972307;28;19933;-49
2021/10/26 09:22:58;;;;;;;;;;;20.30;56.00;;;;;;4972261;28;19927;-52
2021/10/26 09:25:33;;;;;;;;;;;20.30;55.90;;;;;;4971838;28;20005;-50
2021/10/26 09:28:19;;;;;;;;;;;20.30;55.90;;;;;;4971860;28;20017;-53
2021/10/26 09:30:58;;;;;;;;;;;20.30;55.90;;;;;;4972300;28;19929;-48
2021/10/26 09:33:36;;;;;;;;;;;20.30;55.90;;;;;;4972625;28;20394;-49
2021/10/26 09:36:22;;;;;;;;;;;20.30;55.90;;;;;;4971005;28;19926;-51
2021/10/26 09:39:10;;;;;;;;;;;20.30;55.90;;;;;;4973205;28;19957;-50
2021/10/26 09:41:38;;;;;;;;;;;20.30;55.90;;;;;;4973276;28;20013;-52
2021/10/26 09:44:14;;;;;;;;;;;20.30;55.90;;;;;;4970680;28;19926;-49
2021/10/26 09:46:49;;;;;;;;;;;20.30;55.90;;;;;;4970719;28;19937;-49
2021/10/26 09:49:29;;;;;;;;;;;20.30;55.90;;;;;;4966192;28;19926;-48
2021/10/26 09:52:17;;;;;;;;;;;20.30;55.90;;;;;;5003159;28;19925;-52
2021/10/26 09:54:47;;;;;;;;;;;20.30;55.90;;;;;;5012519;28;19925;-53
2021/10/26 09:57:15;;;;;;;;;;;20.30;55.90;;;;;;5012813;28;19965;-49
2021/10/26 09:59:46;;;;;;;;;;;20.30;55.90;;;;;;5013601;28;19930;-56
2021/10/26 10:02:23;;;;;;;;;;;20.30;55.90;;;;;;5005266;28;20017;-53
2021/10/26 10:05:00;;;;;;;;;;;20.30;55.90;;;;;;5006543;28;19991;-51
2021/10/26 10:07:32;;;;;;;;;;;20.30;55.90;;;;;;5010645;28;19933;-52
2021/10/26 10:10:00;;;;;;;;;;;20.30;55.90;;;;;;5019439;28;20350;-54
2021/10/26 10:12:28;;;;;;;;;;;20.30;55.90;;;;;;5004060;28;19932;-52
2021/10/26 10:14:56;;;;;;;;;;;20.30;55.90;;;;;;5004963;28;20470;-55
2021/10/26 10:17:24;;;;;;;;;;;20.30;56.50;;;;;;5002625;28;19934;-54
2021/10/26 10:19:52;;;;;;;;;;;20.30;55.90;;;;;;4996629;28;19926;-50
2021/10/26 10:22:21;;;;;;;;;;;20.30;55.90;;;;;;5000783;28;19984;-53
2021/10/26 10:24:52;;;;;;;;;;;20.30;55.90;;;;;;5009675;28;19965;-52
2021/10/26 10:27:19;;;;;;;;;;;20.30;55.90;;;;;;4998463;28;19987;-50
2021/10/26 10:29:46;;;;;;;;;;;20.30;55.90;;;;;;5013524;28;19969;-49
2021/10/26 10:32:13;;;;;;;;;;;20.30;55.90;;;;;;5012048;28;20386;-53
2021/10/26 10:34:42;;;;;;;;;;;20.30;55.90;;;;;;4997251;28;20297;-49
2021/10/26 10:37:10;;;;;;;;;;;20.30;55.90;;;;;;5012096;28;19929;-52
2021/10/26 10:39:37;;;;;;;;;;;20.30;55.90;;;;;;5012731;28;20004;-48
2021/10/26 10:42:12;;;;;;;;;;;20.30;55.90;;;;;;5013373;28;20366;-49
2021/10/26 10:44:40;;;;;;;;;;;20.30;55.90;;;;;;4995206;28;20390;-54
2021/10/26 10:47:11;;;;;;;;;;;20.30;55.80;;;;;;4994827;28;19926;-51
2021/10/26 10:49:41;;;;;;;;;;;20.30;55.90;;;;;;4995979;28;19949;-52
2021/10/26 10:52:10;;;;;;;;;;;20.30;55.90;;;;;;5012458;28;19929;-51
2021/10/26 10:54:38;;;;;;;;;;;20.30;55.80;;;;;;5010947;28;19976;-49
2021/10/26 10:57:25;;;;;;;;;;;20.30;55.80;;;;;;5012975;28;19926;-48
2021/10/26 10:59:56;;;;;;;;;;;20.30;55.80;;;;;;4998728;28;19988;-49
2021/10/26 11:02:32;;;;;;;;;;;20.30;55.80;;;;;;5010615;28;19926;-49
2021/10/26 11:04:59;;;;;;;;;;;20.30;55.80;;;;;;5010925;28;19925;-53
2021/10/26 11:07:44;;;;;;;;;;;20.30;55.70;;;;;;4996343;28;19930;-50
2021/10/26 11:10:15;;;;;;;;;;;20.30;55.70;;;;;;4995175;28;19957;-52
2021/10/26 11:12:46;;;;;;;;;;;20.30;55.70;;;;;;4995211;28;19969;-55
2021/10/26 11:15:17;;;;;;;;;;;20.30;55.70;;;;;;5009467;28;19972;-55
2021/10/26 11:17:45;;;;;;;;;;;20.30;55.70;;;;;;5012402;28;20386;-50
2021/10/26 11:20:32;;;;;;;;;;;20.40;55.80;;;;;;5011651;28;20266;-56
2021/10/26 11:23:04;;;;;;;;;;;20.30;55.70;;;;;;4994443;28;20013;-49
2021/10/26 11:25:45;;;;;;;;;;;20.40;55.70;;;;;;4995237;28;19964;-49
2021/10/26 11:28:20;;;;;;;;;;;20.40;55.70;;;;;;5011178;28;19929;-47
2021/10/26 11:30:47;;;;;;;;;;;20.40;55.70;;;;;;5011889;28;19979;-49
2021/10/26 11:33:15;;;;;;;;;;;20.40;55.60;;;;;;4995988;28;20005;-49
2021/10/26 11:35:55;;;;;;;;;;;20.40;55.60;;;;;;4995160;28;19930;-54
2021/10/26 11:38:24;;;;;;;;;;;20.40;55.60;;;;;;4995321;28;19936;-48
2021/10/26 11:41:01;;;;;;;;;;;20.40;55.60;;;;;;5012313;28;20016;-50
2021/10/26 11:43:46;;;;;;;;;;;20.40;55.50;;;;;;4995898;28;19977;-47
2021/10/26 11:46:19;;;;;;;;;;;20.40;55.50;;;;;;5012200;28;19952;-53
2021/10/26 11:48:47;;;;;;;;;;;20.40;55.50;;;;;;4995041;28;19930;-49
2021/10/26 11:51:22;;;;;;;;;;;20.50;55.60;;;;;;4995235;28;19926;-51
2021/10/26 11:53:58;;;;;;;;;;;20.50;55.60;;;;;;5012030;28;19968;-52
2021/10/26 11:56:26;;;;;;;;;;;20.50;55.60;;;;;;5011191;28;19926;-52
2021/10/26 11:59:13;;;;;;;;;;;20.50;55.60;;;;;;5012413;28;19961;-49
2021/10/26 12:01:48;;;;;;;;;;;20.50;55.60;;;;;;5016327;28;20393;-51
2021/10/26 12:04:18;;;;;;;;;;;20.50;55.50;;;;;;4998105;28;20509;-49
2021/10/26 12:06:46;;;;;;;;;;;20.50;55.50;;;;;;4999114;28;19979;-48
2021/10/26 12:09:14;;;;;;;;;;;20.50;55.50;;;;;;5014681;28;19971;-48
2021/10/26 12:11:45;;;;;;;;;;;20.50;55.40;;;;;;5016545;28;19936;-52
2021/10/26 12:14:18;;;;;;;;;;;20.50;55.40;;;;;;5013829;28;19925;-47
2021/10/26 12:17:03;;;;;;;;;;;20.50;55.40;;;;;;5009351;28;20381;-56
2021/10/26 12:19:31;;;;;;;;;;;20.50;55.30;;;;;;5015283;28;19929;-49
2021/10/26 12:21:59;;;;;;;;;;;20.50;55.40;;;;;;5014884;28;19925;-50
2021/10/26 12:24:30;;;;;;;;;;;20.50;55.50;;;;;;5000011;28;19930;-50
2021/10/26 12:27:05;;;;;;;;;;;20.50;55.50;;;;;;4999649;28;20333;-52
2021/10/26 12:29:33;;;;;;;;;;;20.50;55.50;;;;;;4999755;28;20333;-52
2021/10/26 12:32:02;;;;;;;;;;;20.50;55.50;;;;;;5014683;28;19929;-50
2021/10/26 12:34:31;;;;;;;;;;;20.50;55.60;;;;;;5001588;28;19930;-52
2021/10/26 12:37:17;;;;;;;;;;;20.50;55.50;;;;;;4999317;28;19925;-53
2021/10/26 12:39:44;;;;;;;;;;;20.50;55.60;;;;;;4999734;28;19926;-50
2021/10/26 12:42:28;;;;;;;;;;;20.50;55.60;;;;;;4999792;28;19926;-49
2021/10/26 12:44:55;;;;;;;;;;;20.50;55.60;;;;;;5014829;28;19973;-53
2021/10/26 12:47:22;;;;;;;;;;;20.50;55.60;;;;;;5015591;28;19929;-52
2021/10/26 12:49:50;;;;;;;;;;;20.40;55.60;;;;;;5002193;28;19925;-52
2021/10/26 12:52:18;;;;;;;;;;;20.40;55.60;;;;;;5010932;28;19926;-52
2021/10/26 12:54:46;;;;;;;;;;;20.40;55.70;;;;;;5002995;28;19977;-54
2021/10/26 12:57:14;;;;;;;;;;;20.40;55.70;;;;;;4999128;28;20321;-53
2021/10/26 12:59:41;;;;;;;;;;;20.40;55.70;;;;;;4999190;28;19949;-52
2021/10/26 13:02:09;;;;;;;;;;;20.40;55.70;;;;;;5008592;28;19987;-52
2021/10/26 13:04:40;;;;;;;;;;;20.40;55.70;;;;;;5013821;28;20382;-53
2021/10/26 13:07:12;;;;;;;;;;;20.40;55.70;;;;;;5013789;28;20271;-53
2021/10/26 13:10:00;;;;;;;;;;;20.40;55.70;;;;;;5013799;28;19925;-51
2021/10/26 13:12:30;;;;;;;;;;;20.40;55.70;;;;;;5012625;28;19925;-53
2021/10/26 13:15:07;;;;;;;;;;;20.40;55.80;;;;;;5015063;28;19968;-52
2021/10/26 13:17:38;;;;;;;;;;;20.40;55.80;;;;;;5014466;28;19952;-49
2021/10/26 13:20:13;;;;;;;;;;;20.40;55.80;;;;;;5014934;28;20361;-54
2021/10/26 13:22:53;;;;;;;;;;;20.40;55.80;;;;;;5014683;28;19927;-53
2021/10/26 13:25:20;;;;;;;;;;;20.40;55.80;;;;;;5014740;28;19945;-52
2021/10/26 13:27:47;;;;;;;;;;;20.40;55.80;;;;;;5014167;28;20008;-54
2021/10/26 13:30:14;;;;;;;;;;;20.40;55.80;;;;;;5006201;28;19932;-55
2021/10/26 13:32:41;;;;;;;;;;;20.40;55.80;;;;;;4998463;28;19993;-50
2021/10/26 13:35:08;;;;;;;;;;;20.40;55.80;;;;;;4998233;28;20009;-51
2021/10/26 13:37:35;;;;;;;;;;;20.40;55.80;;;;;;5002891;28;19926;-49
2021/10/26 13:40:04;;;;;;;;;;;20.40;55.90;;;;;;5014503;28;19968;-52
2021/10/26 13:42:31;;;;;;;;;;;20.40;55.80;;;;;;5010273;28;20412;-52
2021/10/26 13:45:06;;;;;;;;;;;20.40;55.90;;;;;;5001322;28;19925;-50
2021/10/26 13:47:40;;;;;;;;;;;20.40;55.90;;;;;;5011299;28;19926;-54
2021/10/26 13:50:07;;;;;;;;;;;20.40;55.90;;;;;;5001161;28;19929;-54
2021/10/26 13:52:34;;;;;;;;;;;20.40;55.90;;;;;;5015960;28;19929;-52
2021/10/26 13:55:01;;;;;;;;;;;20.40;55.90;;;;;;5013740;28;20024;-52
2021/10/26 13:57:28;;;;;;;;;;;20.40;55.90;;;;;;5013735;28;19980;-54
2021/10/26 13:59:57;;;;;;;;;;;20.40;55.90;;;;;;5014176;28;19972;-53
2021/10/26 14:02:24;;;;;;;;;;;20.40;55.90;;;;;;4996681;28;19926;-48
2021/10/26 14:04:51;;;;;;;;;;;20.40;55.90;;;;;;5008894;28;19925;-51
2021/10/26 14:07:18;;;;;;;;;;;20.40;55.90;;;;;;5012054;28;19961;-49
2021/10/26 14:09:47;;;;;;;;;;;20.40;55.90;;;;;;5013656;28;19988;-51
2021/10/26 14:12:18;;;;;;;;;;;20.30;55.90;;;;;;4996315;28;19941;-53
2021/10/26 14:14:45;;;;;;;;;;;20.30;55.90;;;;;;4997192;28;20400;-49
2021/10/26 14:17:12;;;;;;;;;;;20.40;55.90;;;;;;5011188;28;19932;-54
2021/10/26 14:19:39;;;;;;;;;;;20.30;55.90;;;;;;5000295;28;19925;-51
2021/10/26 14:22:06;;;;;;;;;;;20.30;55.90;;;;;;4996426;28;20028;-51
2021/10/26 14:24:33;;;;;;;;;;;20.30;55.90;;;;;;5008653;28;19926;-55
2021/10/26 14:27:01;;;;;;;;;;;20.30;56.00;;;;;;5012264;28;20044;-57
2021/10/26 14:29:29;;;;;;;;;;;20.30;56.00;;;;;;5003293;28;20010;-53
2021/10/26 14:31:56;;;;;;;;;;;20.30;56.00;;;;;;5005351;28;19925;-56
2021/10/26 14:34:24;;;;;;;;;;;20.30;56.00;;;;;;5004800;28;19930;-54
2021/10/26 14:37:17;;;;;;;;;;;20.30;56.00;;;;;;4996977;28;19930;-55
2021/10/26 14:58:22;;;;;;;;;;;20.30;56.10;;;;;;4956565;28;19930;-54